sensor_id;sensor_type;location;lat;lon;timestamp;P1;durP1;ratioP1;P2;durP2;ratioP2
9667;SDS011;4872;48.316;10.650;2023-03-20T05:07:52;4.70;;;4.30;;
9667;SDS011;4872;48.316;10.650;2023-03-20T05:10:19;5.70;;;5.20;;
9667;SDS011;4872;48.316;10.650;2023-03-20T05:12:46;5.37;;;4.83;;
9667;SDS011;4872;48.316;10.650;2023-03-20T05:15:13;5.23;;;4.73;;
9667;SDS011;4872;48.316;10.650;2023-03-20T05:17:40;6.00;;;4.97;;
9667;SDS011;4872;48.316;10.650;2023-03-20T05:20:07;6.17;;;5.57;;
9667;SDS011;4872;48.316;10.650;2023-03-20T05:22:35;5.83;;;5.30;;
9667;SDS011;4872;48.316;10.650;2023-03-20T05:25:03;5.37;;;4.83;;
9667;SDS011;4872;48.316;10.650;2023-03-20T05:27:31;5.70;;;4.93;;
9667;SDS011;4872;48.316;10.650;2023-03-20T05:29:57;5.80;;;5.30;;
9667;SDS011;4872;48.316;10.650;2023-03-20T05:32:24;5.70;;;5.20;;
9667;SDS011;4872;48.316;10.650;2023-03-20T05:34:51;5.43;;;4.87;;
9667;SDS011;4872;48.316;10.650;2023-03-20T05:37:18;6.17;;;5.57;;
9667;SDS011;4872;48.316;10.650;2023-03-20T05:39:44;6.37;;;5.87;;
9667;SDS011;4872;48.316;10.650;2023-03-20T05:42:12;6.43;;;5.87;;
9667;SDS011;4872;48.316;10.650;2023-03-20T05:44:39;7.47;;;6.70;;
9667;SDS011;4872;48.316;10.650;2023-03-20T05:47:06;6.90;;;6.20;;
9667;SDS011;4872;48.316;10.650;2023-03-20T05:49:33;7.63;;;6.60;;
9667;SDS011;4872;48.316;10.650;2023-03-20T05:52:00;9.17;;;7.40;;
9667;SDS011;4872;48.316;10.650;2023-03-20T05:54:26;7.77;;;6.47;;
9667;SDS011;4872;48.316;10.650;2023-03-20T05:56:53;8.17;;;6.53;;
9667;SDS011;4872;48.316;10.650;2023-03-20T05:59:21;8.10;;;7.00;;
9667;SDS011;4872;48.316;10.650;2023-03-20T06:01:48;8.97;;;7.63;;
9667;SDS011;4872;48.316;10.650;2023-03-20T06:04:15;9.90;;;8.00;;
9667;SDS011;4872;48.316;10.650;2023-03-20T06:06:42;9.07;;;7.67;;
9667;SDS011;4872;48.316;10.650;2023-03-20T06:09:09;10.07;;;8.27;;
9667;SDS011;4872;48.316;10.650;2023-03-20T06:11:35;7.87;;;6.37;;
9667;SDS011;4872;48.316;10.650;2023-03-20T06:14:02;6.33;;;5.30;;
9667;SDS011;4872;48.316;10.650;2023-03-20T06:16:30;5.97;;;5.37;;
9667;SDS011;4872;48.316;10.650;2023-03-20T06:18:57;5.70;;;5.10;;
9667;SDS011;4872;48.316;10.650;2023-03-20T06:21:24;6.40;;;5.10;;
9667;SDS011;4872;48.316;10.650;2023-03-20T06:23:50;6.57;;;5.67;;
9667;SDS011;4872;48.316;10.650;2023-03-20T06:26:18;5.83;;;5.20;;
9667;SDS011;4872;48.316;10.650;2023-03-20T06:28:45;6.07;;;5.30;;
9667;SDS011;4872;48.316;10.650;2023-03-20T06:31:12;6.00;;;5.43;;
9667;SDS011;4872;48.316;10.650;2023-03-20T06:33:40;5.83;;;5.03;;
9667;SDS011;4872;48.316;10.650;2023-03-20T06:36:07;6.10;;;5.50;;
9667;SDS011;4872;48.316;10.650;2023-03-20T06:38:34;6.13;;;5.53;;
9667;SDS011;4872;48.316;10.650;2023-03-20T06:41:01;6.10;;;5.60;;
9667;SDS011;4872;48.316;10.650;2023-03-20T06:43:28;6.03;;;5.13;;
9667;SDS011;4872;48.316;10.650;2023-03-20T06:45:55;9.30;;;7.20;;
9667;SDS011;4872;48.316;10.650;2023-03-20T06:48:22;18.87;;;12.60;;
9667;SDS011;4872;48.316;10.650;2023-03-20T06:50:50;16.00;;;10.80;;
9667;SDS011;4872;48.316;10.650;2023-03-20T06:53:17;9.97;;;7.67;;
9667;SDS011;4872;48.316;10.650;2023-03-20T06:55:45;7.47;;;6.60;;
9667;SDS011;4872;48.316;10.650;2023-03-20T06:58:13;6.53;;;5.90;;
9667;SDS011;4872;48.316;10.650;2023-03-20T07:00:39;5.37;;;4.87;;
9667;SDS011;4872;48.316;10.650;2023-03-20T07:03:06;5.63;;;5.00;;
9667;SDS011;4872;48.316;10.650;2023-03-20T07:05:35;4.90;;;4.50;;
9667;SDS011;4872;48.316;10.650;2023-03-20T07:08:03;6.43;;;5.70;;
9667;SDS011;4872;48.316;10.650;2023-03-20T07:10:31;5.33;;;4.53;;
9667;SDS011;4872;48.316;10.650;2023-03-20T07:12:58;5.17;;;4.70;;
9667;SDS011;4872;48.316;10.650;2023-03-20T07:15:25;5.40;;;4.90;;
9667;SDS011;4872;48.316;10.650;2023-03-20T07:17:53;4.80;;;4.40;;
9667;SDS011;4872;48.316;10.650;2023-03-20T07:20:20;5.47;;;4.97;;
9667;SDS011;4872;48.316;10.650;2023-03-20T07:22:47;4.43;;;4.03;;
9667;SDS011;4872;48.316;10.650;2023-03-20T07:25:15;4.30;;;3.90;;
9667;SDS011;4872;48.316;10.650;2023-03-20T07:27:42;4.00;;;3.70;;
9667;SDS011;4872;48.316;10.650;2023-03-20T07:30:14;5.10;;;4.30;;
9667;SDS011;4872;48.316;10.650;2023-03-20T07:32:41;6.37;;;4.73;;
9667;SDS011;4872;48.316;10.650;2023-03-20T07:35:08;3.97;;;3.57;;
9667;SDS011;4872;48.316;10.650;2023-03-20T07:37:35;4.63;;;3.63;;
9667;SDS011;4872;48.316;10.650;2023-03-20T07:40:02;4.10;;;3.70;;
9667;SDS011;4872;48.316;10.650;2023-03-20T07:42:31;3.90;;;3.27;;
9667;SDS011;4872;48.316;10.650;2023-03-20T07:44:58;3.93;;;3.30;;
9667;SDS011;4872;48.316;10.650;2023-03-20T07:47:24;3.30;;;3.00;;
9667;SDS011;4872;48.316;10.650;2023-03-20T07:49:51;3.67;;;3.37;;
9667;SDS011;4872;48.316;10.650;2023-03-20T07:52:18;4.53;;;3.30;;
9667;SDS011;4872;48.316;10.650;2023-03-20T07:54:45;3.07;;;2.77;;
9667;SDS011;4872;48.316;10.650;2023-03-20T07:57:11;3.40;;;3.10;;
9667;SDS011;4872;48.316;10.650;2023-03-20T07:59:39;4.13;;;3.73;;
9667;SDS011;4872;48.316;10.650;2023-03-20T08:02:08;3.33;;;3.00;;
9667;SDS011;4872;48.316;10.650;2023-03-20T08:04:38;4.47;;;3.33;;
9667;SDS011;4872;48.316;10.650;2023-03-20T08:07:05;4.20;;;3.33;;
9667;SDS011;4872;48.316;10.650;2023-03-20T08:09:32;4.00;;;3.70;;
9667;SDS011;4872;48.316;10.650;2023-03-20T08:11:59;4.17;;;3.77;;
9667;SDS011;4872;48.316;10.650;2023-03-20T08:14:26;4.80;;;4.40;;
9667;SDS011;4872;48.316;10.650;2023-03-20T08:16:54;3.93;;;3.53;;
9667;SDS011;4872;48.316;10.650;2023-03-20T08:19:21;4.53;;;3.50;;
9667;SDS011;4872;48.316;10.650;2023-03-20T08:21:49;4.00;;;3.60;;
9667;SDS011;4872;48.316;10.650;2023-03-20T08:24:16;4.00;;;3.70;;
9667;SDS011;4872;48.316;10.650;2023-03-20T08:26:43;3.23;;;2.93;;
9667;SDS011;4872;48.316;10.650;2023-03-20T08:29:10;3.87;;;3.57;;
9667;SDS011;4872;48.316;10.650;2023-03-20T08:31:37;4.50;;;3.33;;
9667;SDS011;4872;48.316;10.650;2023-03-20T08:34:06;4.77;;;4.27;;
9667;SDS011;4872;48.316;10.650;2023-03-20T08:36:33;3.53;;;3.23;;
9667;SDS011;4872;48.316;10.650;2023-03-20T08:38:59;3.37;;;3.07;;
9667;SDS011;4872;48.316;10.650;2023-03-20T08:41:26;3.33;;;2.80;;
9667;SDS011;4872;48.316;10.650;2023-03-20T08:43:53;4.37;;;3.97;;
9667;SDS011;4872;48.316;10.650;2023-03-20T08:46:20;3.33;;;3.03;;
9667;SDS011;4872;48.316;10.650;2023-03-20T08:48:47;3.17;;;2.87;;
9667;SDS011;4872;48.316;10.650;2023-03-20T08:51:15;3.97;;;3.20;;
9667;SDS011;4872;48.316;10.650;2023-03-20T08:53:42;3.50;;;3.17;;
9667;SDS011;4872;48.316;10.650;2023-03-20T08:56:09;5.27;;;3.40;;
9667;SDS011;4872;48.316;10.650;2023-03-20T08:58:36;3.03;;;2.73;;
9667;SDS011;4872;48.316;10.650;2023-03-20T09:01:03;3.37;;;3.00;;
9667;SDS011;4872;48.316;10.650;2023-03-20T09:03:30;2.77;;;2.53;;
9667;SDS011;4872;48.316;10.650;2023-03-20T09:05:57;3.17;;;2.80;;
9667;SDS011;4872;48.316;10.650;2023-03-20T09:08:25;2.93;;;1.73;;
9667;SDS011;4872;48.316;10.650;2023-03-20T09:10:52;1.90;;;1.80;;
9667;SDS011;4872;48.316;10.650;2023-03-20T09:13:19;2.70;;;2.17;;
9667;SDS011;4872;48.316;10.650;2023-03-20T09:15:46;3.40;;;2.20;;
9667;SDS011;4872;48.316;10.650;2023-03-20T09:18:13;2.40;;;1.90;;
9667;SDS011;4872;48.316;10.650;2023-03-20T09:20:40;2.67;;;2.17;;
9667;SDS011;4872;48.316;10.650;2023-03-20T09:23:07;2.47;;;2.17;;
9667;SDS011;4872;48.316;10.650;2023-03-20T09:25:35;2.97;;;2.00;;
9667;SDS011;4872;48.316;10.650;2023-03-20T09:28:02;2.40;;;2.00;;
9667;SDS011;4872;48.316;10.650;2023-03-20T09:30:29;2.27;;;1.70;;
9667;SDS011;4872;48.316;10.650;2023-03-20T09:32:56;2.07;;;1.60;;
9667;SDS011;4872;48.316;10.650;2023-03-20T09:35:22;2.20;;;1.53;;
9667;SDS011;4872;48.316;10.650;2023-03-20T09:37:49;2.50;;;2.00;;
9667;SDS011;4872;48.316;10.650;2023-03-20T09:40:18;1.70;;;1.60;;
9667;SDS011;4872;48.316;10.650;2023-03-20T09:42:54;1.80;;;1.70;;
9667;SDS011;4872;48.316;10.650;2023-03-20T09:45:33;2.10;;;1.90;;
9667;SDS011;4872;48.316;10.650;2023-03-20T09:48:10;3.53;;;2.70;;
9667;SDS011;4872;48.316;10.650;2023-03-20T09:50:45;2.50;;;2.30;;
9667;SDS011;4872;48.316;10.650;2023-03-20T09:53:21;2.40;;;2.20;;
9667;SDS011;4872;48.316;10.650;2023-03-20T09:55:53;21.10;;;13.60;;
9667;SDS011;4872;48.316;10.650;2023-03-20T09:58:23;12.57;;;6.87;;
9667;SDS011;4872;48.316;10.650;2023-03-20T10:00:54;19.23;;;10.70;;
9667;SDS011;4872;48.316;10.650;2023-03-20T10:03:23;18.20;;;13.37;;
9667;SDS011;4872;48.316;10.650;2023-03-20T10:05:55;8.17;;;6.30;;
9667;SDS011;4872;48.316;10.650;2023-03-20T10:08:26;1.73;;;1.63;;
9667;SDS011;4872;48.316;10.650;2023-03-20T10:11:00;2.10;;;1.90;;
9667;SDS011;4872;48.316;10.650;2023-03-20T10:13:42;2.00;;;1.80;;
9667;SDS011;4872;48.316;10.650;2023-03-20T10:16:27;2.13;;;1.73;;
9667;SDS011;4872;48.316;10.650;2023-03-20T10:19:06;1.80;;;1.70;;
9667;SDS011;4872;48.316;10.650;2023-03-20T10:21:43;1.60;;;1.50;;
9667;SDS011;4872;48.316;10.650;2023-03-20T10:24:12;1.93;;;1.77;;
9667;SDS011;4872;48.316;10.650;2023-03-20T10:26:44;1.90;;;1.80;;
9667;SDS011;4872;48.316;10.650;2023-03-20T10:29:15;1.80;;;1.70;;
9667;SDS011;4872;48.316;10.650;2023-03-20T10:31:54;1.67;;;1.57;;
9667;SDS011;4872;48.316;10.650;2023-03-20T10:34:45;1.70;;;1.60;;
9667;SDS011;4872;48.316;10.650;2023-03-20T10:37:25;1.77;;;1.67;;
9667;SDS011;4872;48.316;10.650;2023-03-20T10:40:09;1.67;;;1.57;;
9667;SDS011;4872;48.316;10.650;2023-03-20T10:42:47;2.67;;;2.40;;
9667;SDS011;4872;48.316;10.650;2023-03-20T10:45:21;2.40;;;2.20;;
9667;SDS011;4872;48.316;10.650;2023-03-20T10:47:54;2.50;;;1.93;;
9667;SDS011;4872;48.316;10.650;2023-03-20T10:50:26;3.27;;;2.97;;
9667;SDS011;4872;48.316;10.650;2023-03-20T10:52:54;2.03;;;1.90;;
9667;SDS011;4872;48.316;10.650;2023-03-20T10:55:23;2.03;;;1.83;;
9667;SDS011;4872;48.316;10.650;2023-03-20T10:57:54;0.90;;;0.90;;
9667;SDS011;4872;48.316;10.650;2023-03-20T11:00:26;1.70;;;1.60;;
9667;SDS011;4872;48.316;10.650;2023-03-20T11:02:53;1.60;;;1.50;;
9667;SDS011;4872;48.316;10.650;2023-03-20T11:05:21;2.77;;;2.07;;
9667;SDS011;4872;48.316;10.650;2023-03-20T11:07:59;2.37;;;1.60;;
9667;SDS011;4872;48.316;10.650;2023-03-20T11:10:27;1.20;;;1.20;;
9667;SDS011;4872;48.316;10.650;2023-03-20T11:12:57;1.47;;;1.33;;
9667;SDS011;4872;48.316;10.650;2023-03-20T11:15:31;1.97;;;1.80;;
9667;SDS011;4872;48.316;10.650;2023-03-20T11:18:00;5.33;;;4.20;;
9667;SDS011;4872;48.316;10.650;2023-03-20T11:20:31;3.50;;;3.13;;
9667;SDS011;4872;48.316;10.650;2023-03-20T11:23:00;3.13;;;2.77;;
9667;SDS011;4872;48.316;10.650;2023-03-20T11:25:30;3.50;;;2.30;;
9667;SDS011;4872;48.316;10.650;2023-03-20T11:30:51;1.50;;;1.40;;
9667;SDS011;4872;48.316;10.650;2023-03-20T11:33:24;2.63;;;2.40;;
9667;SDS011;4872;48.316;10.650;2023-03-20T11:35:54;1.27;;;1.17;;
9667;SDS011;4872;48.316;10.650;2023-03-20T11:38:23;1.70;;;1.57;;
9667;SDS011;4872;48.316;10.650;2023-03-20T11:40:50;1.77;;;1.20;;
9667;SDS011;4872;48.316;10.650;2023-03-20T11:43:18;1.80;;;1.70;;
9667;SDS011;4872;48.316;10.650;2023-03-20T11:45:47;1.47;;;1.20;;
9667;SDS011;4872;48.316;10.650;2023-03-20T11:48:18;1.40;;;1.30;;
9667;SDS011;4872;48.316;10.650;2023-03-20T11:50:47;1.00;;;0.90;;
9667;SDS011;4872;48.316;10.650;2023-03-20T11:53:24;1.70;;;0.90;;
9667;SDS011;4872;48.316;10.650;2023-03-20T11:58:45;1.47;;;1.10;;
9667;SDS011;4872;48.316;10.650;2023-03-20T12:01:17;2.17;;;1.10;;
9667;SDS011;4872;48.316;10.650;2023-03-20T12:03:50;0.83;;;0.83;;
9667;SDS011;4872;48.316;10.650;2023-03-20T12:06:20;0.93;;;0.90;;
9667;SDS011;4872;48.316;10.650;2023-03-20T12:08:51;0.70;;;0.70;;
9667;SDS011;4872;48.316;10.650;2023-03-20T12:14:20;1.27;;;1.10;;
9667;SDS011;4872;48.316;10.650;2023-03-20T12:16:51;1.10;;;1.03;;
9667;SDS011;4872;48.316;10.650;2023-03-20T12:19:24;1.67;;;1.30;;
9667;SDS011;4872;48.316;10.650;2023-03-20T12:21:58;2.30;;;2.10;;
9667;SDS011;4872;48.316;10.650;2023-03-20T12:24:30;2.33;;;1.90;;
9667;SDS011;4872;48.316;10.650;2023-03-20T12:27:12;1.90;;;1.80;;
9667;SDS011;4872;48.316;10.650;2023-03-20T12:29:46;1.97;;;1.73;;
9667;SDS011;4872;48.316;10.650;2023-03-20T12:32:19;1.97;;;1.80;;
9667;SDS011;4872;48.316;10.650;2023-03-20T12:34:51;1.50;;;1.40;;
9667;SDS011;4872;48.316;10.650;2023-03-20T12:37:21;0.97;;;0.97;;
9667;SDS011;4872;48.316;10.650;2023-03-20T12:39:50;1.30;;;1.20;;
9667;SDS011;4872;48.316;10.650;2023-03-20T12:42:22;1.70;;;1.40;;
9667;SDS011;4872;48.316;10.650;2023-03-20T12:44:59;2.93;;;2.40;;
9667;SDS011;4872;48.316;10.650;2023-03-20T12:47:37;6.83;;;5.00;;
9667;SDS011;4872;48.316;10.650;2023-03-20T12:50:19;5.47;;;3.73;;
9667;SDS011;4872;48.316;10.650;2023-03-20T12:52:54;2.70;;;2.50;;
9667;SDS011;4872;48.316;10.650;2023-03-20T12:55:33;1.50;;;1.40;;
9667;SDS011;4872;48.316;10.650;2023-03-20T12:58:10;1.67;;;1.57;;
9667;SDS011;4872;48.316;10.650;2023-03-20T13:00:45;2.13;;;1.87;;
9667;SDS011;4872;48.316;10.650;2023-03-20T13:03:23;1.70;;;1.60;;
9667;SDS011;4872;48.316;10.650;2023-03-20T13:06:01;1.60;;;1.50;;
9667;SDS011;4872;48.316;10.650;2023-03-20T13:08:41;2.57;;;2.37;;
9667;SDS011;4872;48.316;10.650;2023-03-20T13:11:40;2.23;;;1.67;;
9667;SDS011;4872;48.316;10.650;2023-03-20T13:14:12;1.60;;;1.50;;
9667;SDS011;4872;48.316;10.650;2023-03-20T13:16:44;8.23;;;4.60;;
9667;SDS011;4872;48.316;10.650;2023-03-20T13:19:20;1.70;;;1.60;;
9667;SDS011;4872;48.316;10.650;2023-03-20T13:21:56;2.30;;;2.10;;
9667;SDS011;4872;48.316;10.650;2023-03-20T13:24:35;3.47;;;2.60;;
9667;SDS011;4872;48.316;10.650;2023-03-20T13:27:12;2.30;;;2.10;;
9667;SDS011;4872;48.316;10.650;2023-03-20T13:29:49;2.13;;;1.90;;
9667;SDS011;4872;48.316;10.650;2023-03-20T13:32:24;3.17;;;2.80;;
9667;SDS011;4872;48.316;10.650;2023-03-20T13:35:05;1.60;;;1.40;;
9667;SDS011;4872;48.316;10.650;2023-03-20T13:37:49;7.10;;;2.37;;
9667;SDS011;4872;48.316;10.650;2023-03-20T13:40:20;1.83;;;1.70;;
9667;SDS011;4872;48.316;10.650;2023-03-20T13:42:51;2.13;;;1.50;;
9667;SDS011;4872;48.316;10.650;2023-03-20T13:45:23;1.60;;;1.50;;
9667;SDS011;4872;48.316;10.650;2023-03-20T13:47:53;2.30;;;2.10;;
9667;SDS011;4872;48.316;10.650;2023-03-20T13:50:26;2.73;;;2.53;;
9667;SDS011;4872;48.316;10.650;2023-03-20T13:53:05;3.17;;;2.97;;
9667;SDS011;4872;48.316;10.650;2023-03-20T13:55:42;2.67;;;2.40;;
9667;SDS011;4872;48.316;10.650;2023-03-20T13:58:21;2.43;;;2.03;;
9667;SDS011;4872;48.316;10.650;2023-03-20T14:00:57;1.83;;;1.73;;
9667;SDS011;4872;48.316;10.650;2023-03-20T14:03:30;1.63;;;1.53;;
9667;SDS011;4872;48.316;10.650;2023-03-20T14:05:59;1.30;;;1.20;;
9667;SDS011;4872;48.316;10.650;2023-03-20T14:08:43;1.90;;;1.63;;
9667;SDS011;4872;48.316;10.650;2023-03-20T14:11:14;3.53;;;1.80;;
9667;SDS011;4872;48.316;10.650;2023-03-20T14:13:57;1.40;;;1.30;;
9667;SDS011;4872;48.316;10.650;2023-03-20T14:16:30;1.60;;;1.50;;
9667;SDS011;4872;48.316;10.650;2023-03-20T14:19:03;1.50;;;1.40;;
9667;SDS011;4872;48.316;10.650;2023-03-20T14:21:32;2.23;;;2.03;;
9667;SDS011;4872;48.316;10.650;2023-03-20T14:24:02;3.00;;;2.80;;
9667;SDS011;4872;48.316;10.650;2023-03-20T14:26:33;5.17;;;3.10;;
9667;SDS011;4872;48.316;10.650;2023-03-20T14:31:47;1.80;;;1.70;;
9667;SDS011;4872;48.316;10.650;2023-03-20T14:34:16;1.60;;;1.43;;
9667;SDS011;4872;48.316;10.650;2023-03-20T14:36:50;2.03;;;1.40;;
9667;SDS011;4872;48.316;10.650;2023-03-20T14:39:24;1.50;;;1.40;;
9667;SDS011;4872;48.316;10.650;2023-03-20T14:42:02;1.70;;;1.60;;
9667;SDS011;4872;48.316;10.650;2023-03-20T14:44:47;2.20;;;1.50;;
9667;SDS011;4872;48.316;10.650;2023-03-20T14:47:33;1.30;;;1.20;;
9667;SDS011;4872;48.316;10.650;2023-03-20T14:50:09;1.60;;;1.50;;
9667;SDS011;4872;48.316;10.650;2023-03-20T14:52:53;1.40;;;1.30;;
9667;SDS011;4872;48.316;10.650;2023-03-20T14:55:33;1.80;;;1.70;;
9667;SDS011;4872;48.316;10.650;2023-03-20T14:58:33;2.60;;;2.40;;
9667;SDS011;4872;48.316;10.650;2023-03-20T15:01:05;2.60;;;2.37;;
9667;SDS011;4872;48.316;10.650;2023-03-20T15:03:34;1.50;;;1.40;;
9667;SDS011;4872;48.316;10.650;2023-03-20T15:06:05;1.63;;;1.30;;
9667;SDS011;4872;48.316;10.650;2023-03-20T15:08:34;1.77;;;1.43;;
9667;SDS011;4872;48.316;10.650;2023-03-20T15:11:11;1.70;;;1.60;;
9667;SDS011;4872;48.316;10.650;2023-03-20T15:13:40;1.40;;;1.20;;
9667;SDS011;4872;48.316;10.650;2023-03-20T15:16:08;1.10;;;1.00;;
9667;SDS011;4872;48.316;10.650;2023-03-20T15:18:37;2.30;;;1.20;;
9667;SDS011;4872;48.316;10.650;2023-03-20T15:21:09;1.83;;;1.10;;
9667;SDS011;4872;48.316;10.650;2023-03-20T15:23:39;1.37;;;1.27;;
9667;SDS011;4872;48.316;10.650;2023-03-20T15:26:07;1.93;;;1.17;;
9667;SDS011;4872;48.316;10.650;2023-03-20T15:28:35;1.33;;;1.17;;
9667;SDS011;4872;48.316;10.650;2023-03-20T15:31:03;1.43;;;1.10;;
9667;SDS011;4872;48.316;10.650;2023-03-20T15:33:32;1.47;;;1.17;;
9667;SDS011;4872;48.316;10.650;2023-03-20T15:36:07;1.23;;;1.13;;
9667;SDS011;4872;48.316;10.650;2023-03-20T15:38:35;2.03;;;1.60;;
9667;SDS011;4872;48.316;10.650;2023-03-20T15:41:03;2.07;;;1.47;;
9667;SDS011;4872;48.316;10.650;2023-03-20T15:43:31;1.73;;;1.30;;
9667;SDS011;4872;48.316;10.650;2023-03-20T15:46:03;1.70;;;1.10;;
9667;SDS011;4872;48.316;10.650;2023-03-20T15:48:31;1.73;;;1.20;;
9667;SDS011;4872;48.316;10.650;2023-03-20T15:50:58;3.60;;;1.73;;
9667;SDS011;4872;48.316;10.650;2023-03-20T15:53:31;1.30;;;1.20;;
9667;SDS011;4872;48.316;10.650;2023-03-20T15:56:01;2.03;;;1.10;;
9667;SDS011;4872;48.316;10.650;2023-03-20T15:58:30;1.60;;;1.33;;
9667;SDS011;4872;48.316;10.650;2023-03-20T16:00:58;2.20;;;1.70;;
9667;SDS011;4872;48.316;10.650;2023-03-20T16:03:27;1.60;;;1.50;;
9667;SDS011;4872;48.316;10.650;2023-03-20T16:05:57;1.27;;;1.17;;
9667;SDS011;4872;48.316;10.650;2023-03-20T16:08:25;3.80;;;1.60;;
9667;SDS011;4872;48.316;10.650;2023-03-20T16:10:55;1.60;;;1.50;;
9667;SDS011;4872;48.316;10.650;2023-03-20T16:13:22;1.40;;;1.30;;
9667;SDS011;4872;48.316;10.650;2023-03-20T16:15:51;1.60;;;1.30;;
9667;SDS011;4872;48.316;10.650;2023-03-20T16:25:26;2.20;;;1.60;;
9667;SDS011;4872;48.316;10.650;2023-03-20T16:27:54;2.00;;;1.50;;
9667;SDS011;4872;48.316;10.650;2023-03-20T16:30:22;1.87;;;1.30;;
9667;SDS011;4872;48.316;10.650;2023-03-20T16:32:53;1.93;;;1.30;;
9667;SDS011;4872;48.316;10.650;2023-03-20T16:35:27;2.03;;;1.40;;
9667;SDS011;4872;48.316;10.650;2023-03-20T16:37:58;1.67;;;1.57;;
9667;SDS011;4872;48.316;10.650;2023-03-20T16:40:41;1.50;;;1.40;;
9667;SDS011;4872;48.316;10.650;2023-03-20T16:43:18;2.13;;;1.60;;
9667;SDS011;4872;48.316;10.650;2023-03-20T16:45:52;2.00;;;1.77;;
9667;SDS011;4872;48.316;10.650;2023-03-20T16:48:23;2.27;;;2.07;;
9667;SDS011;4872;48.316;10.650;2023-03-20T16:51:12;3.20;;;2.40;;
9667;SDS011;4872;48.316;10.650;2023-03-20T16:53:47;2.83;;;2.63;;
9667;SDS011;4872;48.316;10.650;2023-03-20T16:56:21;2.57;;;2.30;;
9667;SDS011;4872;48.316;10.650;2023-03-20T16:58:55;1.73;;;1.63;;
9667;SDS011;4872;48.316;10.650;2023-03-20T17:01:26;1.83;;;1.70;;
9667;SDS011;4872;48.316;10.650;2023-03-20T17:03:57;3.83;;;3.43;;
9667;SDS011;4872;48.316;10.650;2023-03-20T17:06:42;2.33;;;1.70;;
9667;SDS011;4872;48.316;10.650;2023-03-20T17:09:18;4.30;;;2.20;;
9667;SDS011;4872;48.316;10.650;2023-03-20T17:11:57;3.13;;;2.20;;
9667;SDS011;4872;48.316;10.650;2023-03-20T17:14:28;2.27;;;1.90;;
9667;SDS011;4872;48.316;10.650;2023-03-20T17:16:58;1.73;;;1.60;;
9667;SDS011;4872;48.316;10.650;2023-03-20T17:19:38;1.77;;;1.60;;
9667;SDS011;4872;48.316;10.650;2023-03-20T17:22:09;1.73;;;1.63;;
9667;SDS011;4872;48.316;10.650;2023-03-20T17:24:38;1.87;;;1.77;;
9667;SDS011;4872;48.316;10.650;2023-03-20T17:27:07;1.47;;;1.37;;
9667;SDS011;4872;48.316;10.650;2023-03-20T17:29:52;2.40;;;2.30;;
9667;SDS011;4872;48.316;10.650;2023-03-20T17:32:29;3.90;;;3.60;;
9667;SDS011;4872;48.316;10.650;2023-03-20T17:35:06;5.30;;;4.87;;
9667;SDS011;4872;48.316;10.650;2023-03-20T17:45:49;2.20;;;2.00;;
9667;SDS011;4872;48.316;10.650;2023-03-20T17:48:19;1.60;;;1.50;;
9667;SDS011;4872;48.316;10.650;2023-03-20T17:51:10;2.00;;;1.60;;
9667;SDS011;4872;48.316;10.650;2023-03-20T17:56:44;2.00;;;1.80;;
9667;SDS011;4872;48.316;10.650;2023-03-20T17:59:15;2.93;;;2.73;;
9667;SDS011;4872;48.316;10.650;2023-03-20T18:01:43;4.00;;;2.77;;
9667;SDS011;4872;48.316;10.650;2023-03-20T18:04:12;5.63;;;4.33;;
9667;SDS011;4872;48.316;10.650;2023-03-20T18:06:39;5.80;;;3.83;;
9667;SDS011;4872;48.316;10.650;2023-03-20T18:09:08;4.40;;;3.77;;
9667;SDS011;4872;48.316;10.650;2023-03-20T18:11:41;3.20;;;2.60;;
9667;SDS011;4872;48.316;10.650;2023-03-20T18:14:11;1.80;;;1.70;;
9667;SDS011;4872;48.316;10.650;2023-03-20T18:16:41;1.60;;;1.50;;
9667;SDS011;4872;48.316;10.650;2023-03-20T18:19:12;2.87;;;2.40;;
9667;SDS011;4872;48.316;10.650;2023-03-20T18:21:48;2.77;;;2.40;;
9667;SDS011;4872;48.316;10.650;2023-03-20T18:24:15;3.47;;;2.90;;
9667;SDS011;4872;48.316;10.650;2023-03-20T18:26:48;4.13;;;3.73;;
9667;SDS011;4872;48.316;10.650;2023-03-20T18:29:16;2.77;;;2.47;;
9667;SDS011;4872;48.316;10.650;2023-03-20T18:34:52;4.20;;;3.80;;
9667;SDS011;4872;48.316;10.650;2023-03-20T18:37:28;2.60;;;2.40;;
9667;SDS011;4872;48.316;10.650;2023-03-20T18:39:57;2.47;;;2.27;;
9667;SDS011;4872;48.316;10.650;2023-03-20T18:42:25;5.20;;;2.50;;
9667;SDS011;4872;48.316;10.650;2023-03-20T18:44:52;2.43;;;2.33;;
9667;SDS011;4872;48.316;10.650;2023-03-20T18:47:32;2.00;;;1.90;;
9667;SDS011;4872;48.316;10.650;2023-03-20T18:49:59;1.70;;;1.60;;
9667;SDS011;4872;48.316;10.650;2023-03-20T18:52:26;8.93;;;6.60;;
9667;SDS011;4872;48.316;10.650;2023-03-20T18:54:52;6.73;;;5.80;;
9667;SDS011;4872;48.316;10.650;2023-03-20T18:57:19;4.27;;;2.90;;
9667;SDS011;4872;48.316;10.650;2023-03-20T18:59:46;2.10;;;2.00;;
9667;SDS011;4872;48.316;10.650;2023-03-20T19:02:13;3.43;;;2.60;;
9667;SDS011;4872;48.316;10.650;2023-03-20T19:04:41;2.50;;;2.30;;
9667;SDS011;4872;48.316;10.650;2023-03-20T19:07:09;2.87;;;2.17;;
9667;SDS011;4872;48.316;10.650;2023-03-20T19:09:37;2.37;;;2.13;;
9667;SDS011;4872;48.316;10.650;2023-03-20T19:12:04;2.77;;;1.97;;
9667;SDS011;4872;48.316;10.650;2023-03-20T19:14:31;2.10;;;2.00;;
9667;SDS011;4872;48.316;10.650;2023-03-20T19:16:58;2.10;;;1.80;;
9667;SDS011;4872;48.316;10.650;2023-03-20T19:19:25;2.30;;;2.10;;
9667;SDS011;4872;48.316;10.650;2023-03-20T19:21:54;2.80;;;2.20;;
9667;SDS011;4872;48.316;10.650;2023-03-20T19:24:21;3.87;;;2.20;;
9667;SDS011;4872;48.316;10.650;2023-03-20T19:26:48;2.43;;;2.10;;
9667;SDS011;4872;48.316;10.650;2023-03-20T19:29:20;2.00;;;1.90;;
9667;SDS011;4872;48.316;10.650;2023-03-20T19:31:48;2.87;;;2.47;;
9667;SDS011;4872;48.316;10.650;2023-03-20T19:34:17;2.40;;;2.03;;
9667;SDS011;4872;48.316;10.650;2023-03-20T19:36:44;2.40;;;2.20;;
9667;SDS011;4872;48.316;10.650;2023-03-20T19:39:14;2.30;;;2.10;;
9667;SDS011;4872;48.316;10.650;2023-03-20T19:41:41;2.43;;;2.23;;
9667;SDS011;4872;48.316;10.650;2023-03-20T19:44:08;3.50;;;3.03;;
9667;SDS011;4872;48.316;10.650;2023-03-20T19:46:35;3.27;;;2.90;;
9667;SDS011;4872;48.316;10.650;2023-03-20T19:49:01;3.53;;;3.00;;
9667;SDS011;4872;48.316;10.650;2023-03-20T19:51:30;3.60;;;2.93;;
9667;SDS011;4872;48.316;10.650;2023-03-20T19:53:57;4.30;;;3.33;;
9667;SDS011;4872;48.316;10.650;2023-03-20T19:56:25;3.83;;;3.17;;
9667;SDS011;4872;48.316;10.650;2023-03-20T19:58:52;4.37;;;3.00;;
9667;SDS011;4872;48.316;10.650;2023-03-20T20:01:20;3.77;;;3.10;;
9667;SDS011;4872;48.316;10.650;2023-03-20T20:03:48;5.87;;;3.40;;
9667;SDS011;4872;48.316;10.650;2023-03-20T20:06:22;2.87;;;2.60;;
9667;SDS011;4872;48.316;10.650;2023-03-20T20:08:49;4.13;;;3.00;;
9667;SDS011;4872;48.316;10.650;2023-03-20T20:11:16;3.37;;;3.07;;
9667;SDS011;4872;48.316;10.650;2023-03-20T20:13:45;3.90;;;3.17;;
9667;SDS011;4872;48.316;10.650;2023-03-20T20:16:12;3.20;;;2.90;;
9667;SDS011;4872;48.316;10.650;2023-03-20T20:18:38;4.87;;;3.87;;
9667;SDS011;4872;48.316;10.650;2023-03-20T20:21:05;3.80;;;3.10;;
9667;SDS011;4872;48.316;10.650;2023-03-20T20:23:32;4.60;;;3.63;;
9667;SDS011;4872;48.316;10.650;2023-03-20T20:26:02;5.27;;;4.03;;
9667;SDS011;4872;48.316;10.650;2023-03-20T20:28:31;5.17;;;4.67;;
9667;SDS011;4872;48.316;10.650;2023-03-20T20:31:01;4.80;;;4.30;;
9667;SDS011;4872;48.316;10.650;2023-03-20T20:33:37;5.23;;;4.73;;
9667;SDS011;4872;48.316;10.650;2023-03-20T20:36:07;5.43;;;4.30;;
9667;SDS011;4872;48.316;10.650;2023-03-20T20:38:35;6.10;;;4.17;;
9667;SDS011;4872;48.316;10.650;2023-03-20T20:41:02;4.60;;;4.20;;
9667;SDS011;4872;48.316;10.650;2023-03-20T20:43:29;5.33;;;4.63;;
9667;SDS011;4872;48.316;10.650;2023-03-20T20:45:56;4.50;;;4.10;;
9667;SDS011;4872;48.316;10.650;2023-03-20T20:48:24;8.83;;;5.07;;
9667;SDS011;4872;48.316;10.650;2023-03-20T20:50:51;5.30;;;4.80;;
9667;SDS011;4872;48.316;10.650;2023-03-20T20:53:23;7.07;;;5.30;;
9667;SDS011;4872;48.316;10.650;2023-03-20T20:55:50;6.83;;;5.40;;
9667;SDS011;4872;48.316;10.650;2023-03-20T20:58:17;6.27;;;5.67;;
9667;SDS011;4872;48.316;10.650;2023-03-20T21:00:44;6.60;;;5.07;;